Time,TemperatureF,DewpointF,PressureIn,WindDirection,WindDirectionDegrees,WindSpeedMPH,WindSpeedGustMPH,Humidity,HourlyPrecipIn,Conditions,Clouds,dailyrainin,SoftwareType,DateUTC
2013-09-12 00:14:00,72.0,68.0,29.92,WNW,285,0.0,1.0,87,0.00,,,0.00,,2013-09-12 04:14:00,
2013-09-12 00:24:00,72.0,68.0,29.92,WNW,285,0.0,1.0,87,0.00,,,0.00,,2013-09-12 04:24:00,
2013-09-12 00:34:00,72.0,68.0,29.92,WNW,285,0.0,1.0,87,0.00,,,0.00,,2013-09-12 04:34:00,
2013-09-12 00:44:00,72.0,68.0,29.92,WNW,285,0.0,1.0,87,0.00,,,0.00,,2013-09-12 04:44:00,
2013-09-12 02:12:00,70.0,68.0,29.89,WSW,245,0.0,2.0,93,0.00,,,0.00,,2013-09-12 06:12:00,
2013-09-12 02:22:00,70.0,68.0,29.89,WSW,243,0.0,2.0,93,0.00,,,0.00,,2013-09-12 06:22:00,
2013-09-12 02:42:00,70.0,68.0,29.89,WSW,245,0.0,2.0,93,0.00,,,0.00,,2013-09-12 06:42:00,
2013-09-12 02:52:00,70.0,68.0,29.90,WSW,240,0.0,2.0,94,0.00,,,0.00,,2013-09-12 06:52:00,
2013-09-12 03:12:00,70.0,68.0,29.90,West,272,0.0,3.0,94,0.00,,,0.00,,2013-09-12 07:12:00,
2013-09-12 03:22:00,70.0,68.0,29.90,West,272,0.0,3.0,94,0.00,,,0.00,,2013-09-12 07:22:00,
2013-09-12 03:32:00,70.0,68.0,29.90,West,272,0.0,3.0,94,0.00,,,0.00,,2013-09-12 07:32:00,
2013-09-12 03:43:00,70.0,68.0,29.90,West,272,0.0,3.0,94,0.00,,,0.00,,2013-09-12 07:43:00,
2013-09-12 03:53:00,71.0,69.0,29.91,WSW,246,2.0,8.0,94,0.00,,,0.00,,2013-09-12 07:53:00,
2013-09-12 04:11:00,71.0,69.0,29.90,SW,224,1.0,6.0,93,0.00,,,0.00,,2013-09-12 08:11:00,
2013-09-12 04:22:00,71.0,69.0,29.89,WSW,257,1.0,7.0,92,0.00,,,0.00,,2013-09-12 08:22:00,
2013-09-12 04:52:00,71.0,69.0,29.89,West,264,0.0,5.0,94,0.02,,,0.02,,2013-09-12 08:52:00,
2013-09-12 05:12:00,70.0,68.0,29.88,West,277,0.0,2.0,94,0.02,,,0.02,,2013-09-12 09:12:00,
2013-09-12 05:21:00,70.0,68.0,29.88,West,265,1.0,3.0,95,0.03,,,0.03,,2013-09-12 09:21:00,
2013-09-12 05:53:00,70.0,68.0,29.87,WSW,238,0.0,2.0,95,0.06,,,0.08,,2013-09-12 09:53:00,
2013-09-12 06:12:00,70.0,69.0,29.87,SW,222,1.0,5.0,96,0.07,,,0.09,,2013-09-12 10:12:00,
2013-09-12 06:23:00,70.0,69.0,29.87,SW,224,2.0,4.0,96,0.07,,,0.10,,2013-09-12 10:23:00,
2013-09-12 06:53:00,70.0,69.0,29.88,WSW,242,4.0,8.0,97,0.02,,,0.10,,2013-09-12 10:53:00,
2013-09-12 07:11:00,70.0,69.0,29.88,SW,222,2.0,5.0,97,0.01,,,0.10,,2013-09-12 11:11:00,
2013-09-12 07:22:00,70.0,69.0,29.88,WSW,240,1.0,4.0,97,0.00,,,0.10,,2013-09-12 11:22:00,
2013-09-12 07:52:00,70.0,69.0,29.88,SW,232,3.0,6.0,97,0.00,,,0.10,,2013-09-12 11:52:00,
2013-09-12 08:12:00,70.0,69.0,29.88,SW,219,3.0,6.0,97,0.00,,,0.10,,2013-09-12 12:12:00,
2013-09-12 08:22:00,70.0,69.0,29.88,SW,236,2.0,6.0,97,0.00,,,0.10,,2013-09-12 12:22:00,
2013-09-12 08:42:00,70.0,69.0,29.88,West,271,2.0,7.0,97,0.00,,,0.10,,2013-09-12 12:42:00,
2013-09-12 08:52:00,70.0,69.0,29.88,West,277,2.0,6.0,97,0.00,,,0.10,,2013-09-12 12:52:00,
2013-09-12 09:11:00,70.0,69.0,29.87,SW,232,1.0,4.0,97,0.00,,,0.10,,2013-09-12 13:11:00,
2013-09-12 09:22:00,70.0,69.0,29.87,WNW,288,2.0,5.0,97,0.00,,,0.10,,2013-09-12 13:22:00,
2013-09-12 09:52:00,71.0,70.0,29.87,SW,231,1.0,5.0,97,0.00,,,0.10,,2013-09-12 13:52:00,
2013-09-12 10:11:00,71.0,70.0,29.87,WSW,239,3.0,7.0,97,0.00,,,0.10,,2013-09-12 14:11:00,
2013-09-12 10:22:00,71.0,70.0,29.88,WNW,291,3.0,11.0,96,0.00,,,0.10,,2013-09-12 14:22:00,
2013-09-12 10:42:00,72.0,71.0,29.88,West,277,3.0,7.0,96,0.00,,,0.10,,2013-09-12 14:42:00,
2013-09-12 10:52:00,72.0,70.0,29.88,West,263,4.0,8.0,94,0.00,,,0.10,,2013-09-12 14:52:00,
2013-09-12 11:11:00,72.0,70.0,29.88,WNW,293,4.0,8.0,93,0.00,,,0.10,,2013-09-12 15:11:00,
2013-09-12 11:22:00,72.0,70.0,29.88,WNW,288,2.0,6.0,93,0.00,,,0.10,,2013-09-12 15:22:00,
2013-09-12 11:43:00,73.0,71.0,29.88,WNW,294,2.0,7.0,92,0.00,,,0.10,,2013-09-12 15:43:00,
2013-09-12 11:54:00,73.0,70.0,29.88,WSW,248,3.0,7.0,90,0.00,,,0.10,,2013-09-12 15:54:00,
2013-09-12 12:13:00,73.0,70.0,29.88,WSW,254,4.0,7.0,89,0.00,,,0.10,,2013-09-12 16:13:00,
2013-09-12 12:23:00,73.0,69.0,29.88,WNW,293,4.0,11.0,87,0.00,,,0.10,,2013-09-12 16:23:00,
2013-09-12 12:43:00,73.0,69.0,29.88,SW,233,1.0,9.0,88,0.00,,,0.10,,2013-09-12 16:43:00,
2013-09-12 12:53:00,74.0,70.0,29.89,NW,322,1.0,12.0,86,0.00,,,0.10,,2013-09-12 16:53:00,
2013-09-12 13:12:00,74.0,69.0,29.89,West,259,0.0,7.0,84,0.00,,,0.10,,2013-09-12 17:12:00,
2013-09-12 13:23:00,74.0,68.0,29.88,NNW,329,2.0,6.0,82,0.00,,,0.10,,2013-09-12 17:23:00,
2013-09-12 13:42:00,75.0,67.0,29.88,West,278,4.0,11.0,76,0.00,,,0.10,,2013-09-12 17:42:00,
2013-09-12 13:54:00,75.0,66.0,29.88,West,280,1.0,10.0,74,0.00,,,0.10,,2013-09-12 17:54:00,
2013-09-12 14:12:00,75.0,64.0,29.87,West,260,2.0,12.0,68,0.00,,,0.10,,2013-09-12 18:12:00,
2013-09-12 14:22:00,77.0,66.0,29.87,WNW,288,2.0,8.0,68,0.00,,,0.10,,2013-09-12 18:22:00,
2013-09-12 14:42:00,77.0,63.0,29.86,NE,41,4.0,11.0,61,0.00,,,0.10,,2013-09-12 18:42:00,
2013-09-12 14:52:00,79.0,60.0,29.85,North,11,3.0,8.0,52,0.00,,,0.10,,2013-09-12 18:52:00,
2013-09-12 15:12:00,79.0,60.0,29.84,West,260,3.0,9.0,52,0.00,,,0.10,,2013-09-12 19:12:00,
2013-09-12 15:22:00,80.0,60.0,29.83,WNW,288,2.0,8.0,50,0.00,,,0.10,,2013-09-12 19:22:00,
2013-09-12 15:52:00,80.0,55.0,29.82,North,352,6.0,10.0,43,0.00,,,0.10,,2013-09-12 19:52:00,
2013-09-12 16:12:00,81.0,56.0,29.81,NNW,348,4.0,8.0,43,0.00,,,0.10,,2013-09-12 20:12:00,
2013-09-12 16:22:00,82.0,57.0,29.81,WNW,283,2.0,7.0,42,0.00,,,0.10,,2013-09-12 20:22:00,
2013-09-12 16:42:00,82.0,57.0,29.80,NNW,328,4.0,14.0,42,0.00,,,0.10,,2013-09-12 20:42:00,
2013-09-12 16:52:00,82.0,55.0,29.80,West,259,5.0,9.0,40,0.00,,,0.10,,2013-09-12 20:52:00,
2013-09-12 17:11:00,81.0,56.0,29.79,West,278,2.0,7.0,43,0.00,,,0.10,,2013-09-12 21:11:00,
2013-09-12 17:22:00,80.0,55.0,29.79,WNW,296,1.0,7.0,43,0.00,,,0.10,,2013-09-12 21:22:00,
2013-09-12 17:43:00,81.0,56.0,29.78,West,276,2.0,9.0,42,0.00,,,0.10,,2013-09-12 21:43:00,
2013-09-12 17:54:00,80.0,56.0,29.77,North,8,3.0,9.0,44,0.00,,,0.10,,2013-09-12 21:54:00,
2013-09-12 18:13:00,79.0,56.0,29.77,NNW,347,3.0,7.0,46,0.00,,,0.10,,2013-09-12 22:13:00,
2013-09-12 18:24:00,79.0,57.0,29.77,NW,316,2.0,6.0,47,0.00,,,0.10,,2013-09-12 22:24:00,
2013-09-12 18:43:00,78.0,58.0,29.78,WNW,288,0.0,2.0,50,0.00,,,0.10,,2013-09-12 22:43:00,
2013-09-12 19:53:00,68.0,62.0,29.81,NNE,16,0.0,0.0,81,0.00,,,0.10,,2013-09-12 23:53:00,
2013-09-12 20:11:00,68.0,63.0,29.81,WSW,249,1.0,3.0,83,0.00,,,0.10,,2013-09-13 00:11:00,
2013-09-12 20:22:00,68.0,61.0,29.83,WNW,291,1.0,5.0,79,0.00,,,0.10,,2013-09-13 00:22:00,
2013-09-12 20:42:00,68.0,61.0,29.83,WNW,300,1.0,6.0,78,0.00,,,0.10,,2013-09-13 00:42:00,
2013-09-12 20:52:00,68.0,62.0,29.85,NE,36,5.0,13.0,81,0.00,,,0.10,,2013-09-13 00:52:00,
2013-09-12 21:11:00,66.0,61.0,29.86,NNE,31,6.0,13.0,84,0.00,,,0.10,,2013-09-13 01:11:00,
2013-09-12 21:22:00,65.0,60.0,29.87,East,80,5.0,14.0,84,0.00,,,0.10,,2013-09-13 01:22:00,
2013-09-12 21:42:00,64.0,60.0,29.88,NE,46,4.0,12.0,86,0.00,,,0.10,,2013-09-13 01:42:00,
2013-09-12 21:53:00,64.0,59.0,29.88,NE,34,3.0,12.0,84,0.00,,,0.10,,2013-09-13 01:53:00,
2013-09-12 22:12:00,64.0,59.0,29.88,NNE,15,4.0,7.0,85,0.00,,,0.10,,2013-09-13 02:12:00,
2013-09-12 22:22:00,64.0,59.0,29.89,NNE,31,1.0,7.0,85,0.00,,,0.10,,2013-09-13 02:22:00,
2013-09-12 22:43:00,63.0,58.0,29.89,North,8,4.0,8.0,85,0.00,,,0.10,,2013-09-13 02:43:00,
2013-09-12 22:53:00,63.0,59.0,29.90,North,11,4.0,8.0,86,0.00,,,0.10,,2013-09-13 02:53:00,
2013-09-12 23:12:00,62.0,58.0,29.90,NE,39,3.0,7.0,87,0.00,,,0.10,,2013-09-13 03:12:00,
2013-09-12 23:22:00,62.0,58.0,29.91,ENE,61,4.0,7.0,87,0.00,,,0.10,,2013-09-13 03:22:00,
2013-09-12 23:55:00,61.0,57.0,29.92,North,4,2.0,4.0,88,0.00,,,0.10,,2013-09-13 03:55:00,